createdAt,value
2019-02-11T00:00:11.644Z,99491.41
2019-02-11T00:00:42.888Z,99496.58
2019-02-11T00:01:14.091Z,99494.44
2019-02-11T00:01:46.335Z,99497.02
2019-02-11T00:02:17.560Z,99494.44
2019-02-11T00:02:48.815Z,99498.73
2019-02-11T00:03:20.029Z,99495.74
2019-02-11T00:03:59.260Z,99496.16
2019-02-11T00:04:26.462Z,99487.58
2019-02-11T00:04:57.699Z,99495.33
2019-02-11T00:05:28.902Z,99486.72
2019-02-11T00:06:00.126Z,99486.73
2019-02-11T00:06:31.353Z,99492.73
2019-02-11T00:07:02.572Z,99492.73
2019-02-11T00:07:33.801Z,99487.14
2019-02-11T00:08:05.454Z,99487.60
2019-02-11T00:08:36.660Z,99488.03
2019-02-11T00:09:07.950Z,99483.30
2019-02-11T00:09:39.195Z,99490.63
2019-02-11T00:10:10.455Z,99487.59
2019-02-11T00:10:41.684Z,99492.32
2019-02-11T00:11:13.229Z,99490.16
2019-02-11T00:11:44.435Z,99489.75
2019-02-11T00:12:15.676Z,99487.60
2019-02-11T00:12:46.961Z,99487.60
2019-02-11T00:13:18.520Z,99490.17
2019-02-11T00:13:49.771Z,99491.89
2019-02-11T00:14:21.042Z,99491.02
2019-02-11T00:14:52.261Z,99490.59
2019-02-11T00:15:25.772Z,99489.31
2019-02-11T00:15:56.978Z,99485.85
2019-02-11T00:16:28.230Z,99486.73
2019-02-11T00:16:59.444Z,99479.84
2019-02-11T00:17:30.678Z,99482.86
2019-02-11T00:18:01.904Z,99481.56
2019-02-11T00:18:33.140Z,99480.70
2019-02-11T00:19:04.373Z,99484.14
2019-02-11T00:19:35.634Z,99483.27
2019-02-11T00:20:06.853Z,99483.30
2019-02-11T00:20:38.067Z,99479.00
2019-02-11T00:21:09.280Z,99477.30
2019-02-11T00:21:41.417Z,99475.15
2019-02-11T00:22:12.605Z,99475.58
2019-02-11T00:22:43.851Z,99479.90
2019-02-11T00:23:15.102Z,99477.31
2019-02-11T00:23:46.322Z,99476.47
2019-02-11T00:24:17.544Z,99475.17
2019-02-11T00:24:48.797Z,99478.60
2019-02-11T00:25:20.074Z,99474.30
2019-02-11T00:25:51.294Z,99476.88
2019-02-11T00:26:22.495Z,99483.76
2019-02-11T00:26:53.730Z,99482.05
2019-02-11T00:27:26.053Z,99479.90
2019-02-11T00:27:57.306Z,99482.05
2019-02-11T00:28:28.530Z,99480.73
2019-02-11T00:28:59.785Z,99481.17
2019-02-11T00:29:30.993Z,99481.63
2019-02-11T00:30:02.229Z,99482.47
2019-02-11T00:30:34.305Z,99479.44
2019-02-11T00:31:05.609Z,99478.16
2019-02-11T00:31:36.821Z,99476.86
2019-02-11T00:32:08.051Z,99476.86
2019-02-11T00:32:39.260Z,99481.16
2019-02-11T00:33:10.542Z,99473.02
2019-02-11T00:33:41.745Z,99479.03
2019-02-11T00:34:12.983Z,99479.04
2019-02-11T00:34:44.209Z,99475.17
2019-02-11T00:35:15.417Z,99483.31
2019-02-11T00:35:46.649Z,99476.47
2019-02-11T00:36:17.897Z,99473.45
2019-02-11T00:36:49.139Z,99473.89
2019-02-11T00:37:20.349Z,99478.19
2019-02-11T00:37:51.563Z,99475.64
2019-02-11T00:38:25.166Z,99476.06
2019-02-11T00:38:56.373Z,99479.92
2019-02-11T00:39:27.588Z,99476.52
2019-02-11T00:39:58.812Z,99478.23
2019-02-11T00:40:30.066Z,99480.81
2019-02-11T00:41:01.287Z,99476.95
2019-02-11T00:41:32.484Z,99480.38
2019-02-11T00:42:03.749Z,99477.41
2019-02-11T00:42:38.063Z,99479.53
2019-02-11T00:43:09.300Z,99477.81
2019-02-11T00:43:40.552Z,99479.95
2019-02-11T00:44:11.759Z,99473.97
2019-02-11T00:44:42.979Z,99477.39
2019-02-11T00:45:15.015Z,99476.55
2019-02-11T00:45:46.231Z,99477.84
2019-02-11T00:46:17.440Z,99473.52
2019-02-11T00:46:48.662Z,99473.95
2019-02-11T00:47:19.870Z,99473.53
2019-02-11T00:47:51.094Z,99467.08
2019-02-11T00:48:22.338Z,99470.07
2019-02-11T00:48:53.605Z,99461.94
2019-02-11T00:49:24.838Z,99467.07
2019-02-11T00:49:56.068Z,99465.80
2019-02-11T00:50:27.310Z,99462.36
2019-02-11T00:50:59.569Z,99466.22
2019-02-11T00:51:33.021Z,99462.34
2019-02-11T00:52:04.227Z,99461.49
2019-02-11T00:52:35.521Z,99461.89
2019-02-11T00:53:06.849Z,99458.91
2019-02-11T00:53:38.056Z,99464.47
2019-02-11T00:54:09.289Z,99470.49
2019-02-11T00:54:40.515Z,99468.78
2019-02-11T00:55:11.721Z,99468.80
2019-02-11T00:55:42.930Z,99470.09
2019-02-11T00:56:14.143Z,99471.37
2019-02-11T00:56:45.763Z,99473.10
2019-02-11T00:57:18.120Z,99474.39
2019-02-11T00:57:49.331Z,99472.66
2019-02-11T00:58:20.736Z,99472.66
2019-02-11T00:58:51.973Z,99464.50
2019-02-11T00:59:23.216Z,99461.49
2019-02-11T00:59:54.421Z,99458.91
2019-02-11T01:00:25.653Z,99464.06
2019-02-11T01:00:56.860Z,99457.19
2019-02-11T01:01:28.068Z,99456.78
2019-02-11T01:01:59.274Z,99454.19
2019-02-11T01:02:30.533Z,99457.63
2019-02-11T01:03:01.741Z,99456.77
2019-02-11T01:03:32.969Z,99458.06
2019-02-11T01:04:04.207Z,99450.34
2019-02-11T01:04:35.437Z,99450.34
2019-02-11T01:05:06.679Z,99455.50
2019-02-11T01:05:37.909Z,99455.91
2019-02-11T01:06:09.130Z,99458.49
2019-02-11T01:06:40.344Z,99456.36
2019-02-11T01:07:11.546Z,99460.20
2019-02-11T01:07:42.798Z,99455.48
2019-02-11T01:08:14.002Z,99453.75
2019-02-11T01:08:45.638Z,99455.48
2019-02-11T01:09:16.843Z,99449.04
2019-02-11T01:09:48.066Z,99452.47
2019-02-11T01:10:19.280Z,99449.89
2019-02-11T01:10:50.486Z,99455.05
2019-02-11T01:11:21.736Z,99452.06
2019-02-11T01:11:52.950Z,99456.77
2019-02-11T01:12:24.157Z,99454.63
2019-02-11T01:12:56.491Z,99454.63
2019-02-11T01:13:28.178Z,99458.09
2019-02-11T01:14:00.372Z,99452.94
2019-02-11T01:14:31.577Z,99453.38
2019-02-11T01:15:02.799Z,99457.67
2019-02-11T01:15:34.014Z,99449.93
2019-02-11T01:16:05.243Z,99454.64
2019-02-11T01:16:36.477Z,99458.09
2019-02-11T01:17:07.702Z,99448.62
2019-02-11T01:17:38.921Z,99452.05
2019-02-11T01:18:10.127Z,99450.35
2019-02-11T01:18:43.524Z,99449.94
2019-02-11T01:19:14.720Z,99452.51
2019-02-11T01:19:45.937Z,99451.63
2019-02-11T01:20:17.133Z,99452.05
2019-02-11T01:20:48.363Z,99446.48
2019-02-11T01:21:19.582Z,99442.17
2019-02-11T01:21:50.806Z,99440.03
2019-02-11T01:22:22.035Z,99440.45
2019-02-11T01:22:53.240Z,99441.75
2019-02-11T01:23:24.519Z,99434.02
2019-02-11T01:23:55.721Z,99431.85
2019-02-11T01:24:26.948Z,99433.58
2019-02-11T01:24:58.156Z,99428.00
2019-02-11T01:25:29.420Z,99431.88
2019-02-11T01:26:00.630Z,99434.00
2019-02-11T01:26:31.865Z,99434.45
2019-02-11T01:27:03.093Z,99441.73
2019-02-11T01:27:34.311Z,99441.73
2019-02-11T01:28:06.664Z,99444.77
2019-02-11T01:28:37.890Z,99451.63
2019-02-11T01:29:09.103Z,99449.06
2019-02-11T01:29:40.314Z,99446.06
2019-02-11T01:30:11.541Z,99449.92
2019-02-11T01:30:42.804Z,99445.61
2019-02-11T01:31:14.020Z,99449.91
2019-02-11T01:31:45.233Z,99449.06
2019-02-11T01:32:16.465Z,99446.91
2019-02-11T01:32:47.670Z,99449.45
2019-02-11T01:33:18.881Z,99453.33
2019-02-11T01:33:57.114Z,99446.88
2019-02-11T01:34:28.420Z,99453.78
2019-02-11T01:34:59.640Z,99451.64
2019-02-11T01:35:30.893Z,99454.21
2019-02-11T01:36:02.102Z,99455.91
2019-02-11T01:36:33.317Z,99457.64
2019-02-11T01:37:04.563Z,99466.27
2019-02-11T01:37:35.806Z,99461.08
2019-02-11T01:38:07.022Z,99469.24
2019-02-11T01:38:38.227Z,99465.81
2019-02-11T01:39:09.459Z,99468.42
2019-02-11T01:39:40.669Z,99470.53
2019-02-11T01:40:11.889Z,99470.98
2019-02-11T01:40:43.096Z,99460.23
2019-02-11T01:41:14.347Z,99468.39
2019-02-11T01:41:45.554Z,99467.10
2019-02-11T01:42:16.789Z,99470.98
2019-02-11T01:42:47.997Z,99472.69
2019-02-11T01:43:19.214Z,99467.10
2019-02-11T01:43:50.424Z,99468.39
2019-02-11T01:44:21.637Z,99461.11
2019-02-11T01:44:52.844Z,99461.95
2019-02-11T01:45:24.061Z,99462.41
2019-02-11T01:45:55.348Z,99452.10
2019-02-11T01:46:26.576Z,99449.51
2019-02-11T01:46:57.814Z,99449.09
2019-02-11T01:47:29.046Z,99448.22
2019-02-11T01:48:02.322Z,99439.66
2019-02-11T01:48:33.558Z,99446.09
2019-02-11T01:49:07.630Z,99442.63
2019-02-11T01:49:38.838Z,99442.20
2019-02-11T01:50:10.069Z,99437.48
2019-02-11T01:50:41.281Z,99444.35
2019-02-11T01:51:12.548Z,99439.19
2019-02-11T01:51:44.267Z,99440.50
2019-02-11T01:52:15.488Z,99445.66
2019-02-11T01:52:46.716Z,99448.23
2019-02-11T01:53:17.953Z,99441.77
2019-02-11T01:53:49.534Z,99441.34
2019-02-11T01:54:20.747Z,99442.22
2019-02-11T01:54:52.004Z,99443.05
2019-02-11T01:55:23.236Z,99442.63
2019-02-11T01:55:54.444Z,99443.91
2019-02-11T01:56:25.694Z,99440.91
2019-02-11T01:56:56.899Z,99440.51
2019-02-11T01:57:28.123Z,99444.77
2019-02-11T01:57:59.361Z,99445.20
2019-02-11T01:58:30.592Z,99444.77
2019-02-11T01:59:02.867Z,99442.65
2019-02-11T01:59:34.073Z,99441.36
2019-02-11T02:00:05.305Z,99443.50
2019-02-11T02:00:37.637Z,99441.79
2019-02-11T02:01:08.882Z,99440.91
2019-02-11T02:01:40.566Z,99443.48
2019-02-11T02:02:11.822Z,99437.94
2019-02-11T02:02:43.012Z,99438.78
2019-02-11T02:03:14.224Z,99437.05
2019-02-11T02:03:45.460Z,99440.08
2019-02-11T02:04:16.663Z,99437.48
2019-02-11T02:04:47.894Z,99437.05
2019-02-11T02:05:21.432Z,99430.62
2019-02-11T02:05:52.737Z,99434.05
2019-02-11T02:06:23.986Z,99422.48
2019-02-11T02:06:55.229Z,99425.92
2019-02-11T02:07:26.488Z,99419.88
2019-02-11T02:07:59.692Z,99421.17
2019-02-11T02:08:30.960Z,99422.05
2019-02-11T02:09:02.212Z,99418.19
2019-02-11T02:09:33.431Z,99426.34
2019-02-11T02:10:04.644Z,99422.03
2019-02-11T02:10:35.857Z,99420.33
2019-02-11T02:11:07.063Z,99421.61
2019-02-11T02:11:38.315Z,99419.03
2019-02-11T02:12:09.530Z,99420.77
2019-02-11T02:12:40.758Z,99416.45
2019-02-11T02:13:12.029Z,99421.19
2019-02-11T02:13:44.776Z,99419.03
2019-02-11T02:14:20.800Z,99425.03
2019-02-11T02:14:52.037Z,99424.18
2019-02-11T02:15:23.250Z,99425.48
2019-02-11T02:15:54.470Z,99415.59
2019-02-11T02:16:25.682Z,99421.63
2019-02-11T02:16:56.949Z,99415.59
2019-02-11T02:17:28.156Z,99417.31
2019-02-11T02:17:59.359Z,99416.89
2019-02-11T02:18:30.619Z,99416.48
2019-02-11T02:19:01.846Z,99415.62
2019-02-11T02:19:33.051Z,99420.77
2019-02-11T02:20:04.269Z,99420.75
2019-02-11T02:20:35.493Z,99419.89
2019-02-11T02:21:06.727Z,99415.18
2019-02-11T02:21:37.950Z,99418.61
2019-02-11T02:22:09.213Z,99421.19
2019-02-11T02:22:40.432Z,99416.05
2019-02-11T02:23:11.653Z,99416.48
2019-02-11T02:23:43.292Z,99411.33
2019-02-11T02:24:14.496Z,99412.19
2019-02-11T02:24:45.708Z,99402.30
2019-02-11T02:25:16.920Z,99409.61
2019-02-11T02:25:48.167Z,99410.02
2019-02-11T02:26:19.392Z,99409.17
2019-02-11T02:26:50.590Z,99410.47
2019-02-11T02:27:24.954Z,99411.31
2019-02-11T02:27:56.168Z,99416.47
2019-02-11T02:28:27.380Z,99418.19
2019-02-11T02:28:58.609Z,99413.03
2019-02-11T02:29:29.892Z,99416.03
2019-02-11T02:30:05.273Z,99414.74
2019-02-11T02:30:36.541Z,99415.16
2019-02-11T02:31:08.227Z,99413.89
2019-02-11T02:31:39.480Z,99408.74
2019-02-11T02:32:10.671Z,99406.18
2019-02-11T02:32:41.907Z,99402.31
2019-02-11T02:33:13.117Z,99396.29
2019-02-11T02:33:44.394Z,99395.86
2019-02-11T02:34:15.605Z,99393.29
2019-02-11T02:34:46.813Z,99384.72
2019-02-11T02:35:20.250Z,99380.00
2019-02-11T02:35:51.767Z,99380.00
2019-02-11T02:36:22.984Z,99377.86
2019-02-11T02:36:54.194Z,99376.15
2019-02-11T02:37:25.399Z,99378.28
2019-02-11T02:37:56.642Z,99379.15
2019-02-11T02:38:27.856Z,99376.56
2019-02-11T02:38:59.144Z,99377.00
2019-02-11T02:39:30.370Z,99380.41
2019-02-11T02:40:01.580Z,99383.44
2019-02-11T02:40:33.886Z,99385.58
2019-02-11T02:41:06.209Z,99384.73
2019-02-11T02:41:37.452Z,99381.27
2019-02-11T02:42:08.686Z,99388.59
2019-02-11T02:42:39.917Z,99385.14
2019-02-11T02:43:18.197Z,99392.02
2019-02-11T02:43:55.710Z,99387.72
2019-02-11T02:44:22.412Z,99388.56
2019-02-11T02:44:53.672Z,99391.14
2019-02-11T02:45:24.881Z,99396.28
2019-02-11T02:45:56.141Z,99392.88
2019-02-11T02:46:27.365Z,99393.27
2019-02-11T02:46:58.645Z,99400.12
2019-02-11T02:47:29.875Z,99401.40
2019-02-11T02:48:01.121Z,99399.25
2019-02-11T02:48:32.366Z,99398.81
2019-02-11T02:49:03.583Z,99397.11
2019-02-11T02:49:34.837Z,99398.80
2019-02-11T02:50:06.059Z,99397.95
2019-02-11T02:50:37.265Z,99397.51
2019-02-11T02:51:08.470Z,99402.66
2019-02-11T02:51:39.689Z,99397.94
2019-02-11T02:52:10.943Z,99398.37
2019-02-11T02:52:43.214Z,99396.25
2019-02-11T02:53:14.434Z,99395.80
2019-02-11T02:53:45.677Z,99402.67
2019-02-11T02:54:16.921Z,99394.55
2019-02-11T02:54:48.146Z,99393.66
2019-02-11T02:55:21.886Z,99395.82
2019-02-11T02:55:54.149Z,99392.80
2019-02-11T02:56:25.389Z,99395.82
2019-02-11T02:56:56.661Z,99396.69
2019-02-11T02:57:27.934Z,99392.39
2019-02-11T02:57:59.178Z,99396.69
2019-02-11T02:58:30.395Z,99385.11
2019-02-11T02:59:01.612Z,99386.42
2019-02-11T02:59:32.827Z,99386.82
2019-02-11T03:00:04.050Z,99387.28
2019-02-11T03:00:35.259Z,99382.55
2019-02-11T03:01:06.491Z,99390.72
2019-02-11T03:01:37.721Z,99388.55
2019-02-11T03:02:08.933Z,99384.69
2019-02-11T03:02:40.152Z,99387.69
2019-02-11T03:03:11.426Z,99385.15
2019-02-11T03:03:42.642Z,99379.12
2019-02-11T03:04:13.877Z,99380.41
2019-02-11T03:04:45.091Z,99382.56
2019-02-11T03:05:16.300Z,99382.12
2019-02-11T03:05:47.507Z,99385.16
2019-02-11T03:06:18.749Z,99383.87
2019-02-11T03:06:50.997Z,99385.98
2019-02-11T03:07:22.572Z,99390.70
2019-02-11T03:07:53.791Z,99390.73
2019-02-11T03:08:25.236Z,99389.00
2019-02-11T03:08:56.436Z,99391.56
2019-02-11T03:09:27.657Z,99393.73
2019-02-11T03:09:58.891Z,99390.31
2019-02-11T03:10:30.122Z,99392.00
2019-02-11T03:11:01.376Z,99389.43
2019-02-11T03:11:32.575Z,99392.00
2019-02-11T03:12:03.793Z,99390.28
2019-02-11T03:12:35.049Z,99393.73
2019-02-11T03:13:06.269Z,99393.27
2019-02-11T03:13:37.542Z,99392.00
2019-02-11T03:14:08.949Z,99395.44
2019-02-11T03:14:41.262Z,99392.85
2019-02-11T03:15:12.465Z,99386.84
2019-02-11T03:15:43.679Z,99396.72
2019-02-11T03:16:14.930Z,99394.14
2019-02-11T03:16:46.147Z,99394.16
2019-02-11T03:17:17.369Z,99384.71
2019-02-11T03:17:48.589Z,99385.15
2019-02-11T03:18:19.850Z,99388.58
2019-02-11T03:18:51.116Z,99381.72
2019-02-11T03:19:22.325Z,99378.70
2019-02-11T03:19:53.534Z,99376.57
2019-02-11T03:20:24.760Z,99374.44
2019-02-11T03:20:56.047Z,99373.55
2019-02-11T03:21:27.268Z,99370.58
2019-02-11T03:21:58.487Z,99374.84
2019-02-11T03:22:29.757Z,99375.72
2019-02-11T03:23:01.005Z,99376.55
2019-02-11T03:23:32.217Z,99373.14
2019-02-11T03:24:03.469Z,99371.86
2019-02-11T03:24:34.679Z,99378.70
2019-02-11T03:25:05.911Z,99374.84
2019-02-11T03:25:37.112Z,99373.55
2019-02-11T03:26:08.351Z,99373.58
2019-02-11T03:26:41.821Z,99372.27
2019-02-11T03:27:15.293Z,99371.84
2019-02-11T03:27:46.515Z,99376.14
2019-02-11T03:28:17.725Z,99375.69
2019-02-11T03:28:48.936Z,99373.98
2019-02-11T03:29:20.363Z,99376.55
2019-02-11T03:29:51.608Z,99373.12
2019-02-11T03:30:22.855Z,99373.55
2019-02-11T03:30:54.109Z,99379.55
2019-02-11T03:31:25.306Z,99379.57
2019-02-11T03:31:59.842Z,99371.83
2019-02-11T03:32:30.463Z,99376.13
2019-02-11T03:33:01.695Z,99374.39
2019-02-11T03:33:33.982Z,99380.00
2019-02-11T03:34:05.188Z,99376.13
2019-02-11T03:34:36.400Z,99378.69
2019-02-11T03:35:07.654Z,99383.83
2019-02-11T03:35:38.903Z,99379.55
2019-02-11T03:36:10.112Z,99378.70
2019-02-11T03:36:41.408Z,99374.39
2019-02-11T03:37:12.666Z,99376.13
2019-02-11T03:37:43.876Z,99376.11
2019-02-11T03:38:15.119Z,99376.54
2019-02-11T03:38:56.954Z,99374.84
2019-02-11T03:39:28.193Z,99375.25
2019-02-11T03:39:59.431Z,99379.53
2019-02-11T03:40:30.630Z,99369.66
2019-02-11T03:41:01.874Z,99376.98
2019-02-11T03:41:34.139Z,99373.52
2019-02-11T03:42:06.098Z,99377.41
2019-02-11T03:42:37.307Z,99379.97
2019-02-11T03:43:08.538Z,99381.23
2019-02-11T03:43:39.757Z,99377.82
2019-02-11T03:44:15.018Z,99382.12
2019-02-11T03:44:43.914Z,99379.09
2019-02-11T03:45:15.128Z,99383.39
2019-02-11T03:45:46.365Z,99377.38
2019-02-11T03:46:17.619Z,99375.23
2019-02-11T03:46:48.845Z,99369.23
2019-02-11T03:47:20.070Z,99376.11
2019-02-11T03:47:51.294Z,99374.38
2019-02-11T03:48:22.488Z,99370.50
2019-02-11T03:48:53.709Z,99375.66
2019-02-11T03:49:24.938Z,99373.50
2019-02-11T03:49:56.163Z,99374.77
2019-02-11T03:50:27.382Z,99379.05
2019-02-11T03:50:58.599Z,99376.02
2019-02-11T03:51:37.238Z,99383.77
2019-02-11T03:52:08.449Z,99378.59
2019-02-11T03:52:39.733Z,99378.16
2019-02-11T03:53:10.945Z,99372.57
2019-02-11T03:53:43.280Z,99376.00
2019-02-11T03:54:16.778Z,99376.46
2019-02-11T03:54:47.991Z,99388.03
2019-02-11T03:55:19.209Z,99380.33
2019-02-11T03:55:50.441Z,99389.33
2019-02-11T03:56:21.652Z,99382.04
2019-02-11T03:56:52.909Z,99388.50
2019-02-11T03:57:24.153Z,99390.20
2019-02-11T03:57:55.401Z,99388.05
2019-02-11T03:58:26.663Z,99386.33
2019-02-11T03:59:00.203Z,99389.80
2019-02-11T03:59:31.455Z,99390.64
2019-02-11T04:00:04.746Z,99385.06
2019-02-11T04:00:35.996Z,99382.92
2019-02-11T04:01:07.233Z,99378.63
2019-02-11T04:01:38.442Z,99380.35
2019-02-11T04:02:09.662Z,99369.20
2019-02-11T04:02:41.278Z,99370.05
2019-02-11T04:03:12.507Z,99362.30
2019-02-11T04:03:43.719Z,99365.29
2019-02-11T04:04:14.923Z,99365.29
2019-02-11T04:04:46.151Z,99366.56
2019-02-11T04:05:17.369Z,99365.72
2019-02-11T04:05:48.652Z,99364.44
2019-02-11T04:06:20.038Z,99370.02
2019-02-11T04:06:51.310Z,99374.31
2019-02-11T04:07:22.529Z,99370.88
2019-02-11T04:07:53.764Z,99371.73
2019-02-11T04:08:24.986Z,99368.29
2019-02-11T04:08:56.204Z,99360.58
2019-02-11T04:09:27.422Z,99361.88
2019-02-11T04:10:00.980Z,99355.89
2019-02-11T04:10:32.192Z,99357.16
2019-02-11T04:11:04.513Z,99357.16
2019-02-11T04:11:35.811Z,99359.75
2019-02-11T04:12:07.022Z,99354.59
2019-02-11T04:12:38.254Z,99357.16
2019-02-11T04:13:09.462Z,99352.87
2019-02-11T04:13:43.108Z,99358.03
2019-02-11T04:14:14.332Z,99355.88
2019-02-11T04:14:45.563Z,99355.47
2019-02-11T04:15:16.825Z,99355.02
2019-02-11T04:15:48.042Z,99353.75
2019-02-11T04:16:19.818Z,99347.72
2019-02-11T04:16:51.077Z,99349.02
2019-02-11T04:17:22.288Z,99354.62
2019-02-11T04:17:53.512Z,99350.74
2019-02-11T04:18:24.725Z,99350.75
2019-02-11T04:18:55.981Z,99358.05
2019-02-11T04:19:27.218Z,99350.74
2019-02-11T04:19:58.755Z,99353.75
2019-02-11T04:20:32.325Z,99352.47
2019-02-11T04:21:04.607Z,99344.76
2019-02-11T04:21:35.884Z,99343.88
2019-02-11T04:22:07.142Z,99344.33
2019-02-11T04:22:38.400Z,99345.61
2019-02-11T04:23:09.654Z,99345.61
2019-02-11T04:23:40.850Z,99340.89
2019-02-11T04:24:12.051Z,99341.34
2019-02-11T04:24:43.294Z,99341.34
2019-02-11T04:25:14.511Z,99337.47
2019-02-11T04:25:45.731Z,99326.73
2019-02-11T04:26:16.962Z,99330.61
2019-02-11T04:26:48.204Z,99326.75
2019-02-11T04:27:19.543Z,99321.59
2019-02-11T04:27:50.753Z,99321.60
2019-02-11T04:28:21.952Z,99322.05
2019-02-11T04:28:53.185Z,99323.75
2019-02-11T04:29:24.408Z,99321.19
2019-02-11T04:29:55.659Z,99323.33
2019-02-11T04:30:27.945Z,99324.19
2019-02-11T04:31:03.517Z,99327.20
2019-02-11T04:31:34.730Z,99321.21
2019-02-11T04:32:06.346Z,99322.48
2019-02-11T04:32:37.584Z,99320.77
2019-02-11T04:33:08.778Z,99317.80
2019-02-11T04:33:40.007Z,99314.35
2019-02-11T04:34:11.276Z,99315.64
2019-02-11T04:34:42.692Z,99322.05
2019-02-11T04:35:13.900Z,99316.03
2019-02-11T04:35:45.102Z,99317.34
2019-02-11T04:36:16.316Z,99315.16
2019-02-11T04:36:47.536Z,99314.31
2019-02-11T04:37:18.748Z,99313.02
2019-02-11T04:37:49.980Z,99307.44
2019-02-11T04:38:21.194Z,99310.46
2019-02-11T04:38:52.410Z,99308.33
2019-02-11T04:39:23.692Z,99301.02
2019-02-11T04:39:54.900Z,99304.02
2019-02-11T04:40:26.120Z,99301.45
2019-02-11T04:40:57.331Z,99301.45
2019-02-11T04:41:28.570Z,99293.29
2019-02-11T04:41:59.779Z,99288.58
2019-02-11T04:42:31.041Z,99289.03
2019-02-11T04:43:02.282Z,99285.59
2019-02-11T04:43:33.515Z,99287.32
2019-02-11T04:44:04.736Z,99280.88
2019-02-11T04:44:35.957Z,99281.75
2019-02-11T04:45:07.111Z,99280.03
2019-02-11T04:45:38.336Z,99278.75
2019-02-11T04:46:09.591Z,99278.30
2019-02-11T04:46:40.845Z,99274.05
2019-02-11T04:47:14.099Z,99276.17
2019-02-11T04:47:45.307Z,99274.45
2019-02-11T04:48:16.953Z,99280.87
2019-02-11T04:48:48.172Z,99276.59
2019-02-11T04:49:19.377Z,99281.73
2019-02-11T04:49:50.617Z,99276.59
2019-02-11T04:50:21.824Z,99277.43
2019-02-11T04:50:53.037Z,99276.58
2019-02-11T04:51:24.247Z,99276.16
2019-02-11T04:51:55.484Z,99276.59
2019-02-11T04:52:26.734Z,99276.58
2019-02-11T04:52:57.940Z,99270.59
2019-02-11T04:53:29.149Z,99272.28
2019-02-11T04:54:00.683Z,99271.44
2019-02-11T04:54:31.895Z,99273.56
2019-02-11T04:55:03.127Z,99270.15
2019-02-11T04:55:34.327Z,99269.70
2019-02-11T04:56:05.548Z,99269.70
2019-02-11T04:56:36.752Z,99270.14
2019-02-11T04:57:07.980Z,99269.69
2019-02-11T04:57:39.229Z,99264.56
2019-02-11T04:58:10.462Z,99267.98
2019-02-11T04:58:41.669Z,99264.13
2019-02-11T04:59:12.959Z,99266.27
2019-02-11T04:59:44.177Z,99265.41
2019-02-11T05:00:15.429Z,99261.98
2019-02-11T05:00:46.700Z,99260.27
2019-02-11T05:01:17.911Z,99258.12
2019-02-11T05:01:49.207Z,99261.99
2019-02-11T05:02:20.444Z,99258.55
2019-02-11T05:02:51.635Z,99253.00
2019-02-11T05:03:22.857Z,99255.11
2019-02-11T05:03:54.180Z,99256.41
2019-02-11T05:04:25.335Z,99260.69
2019-02-11T05:04:59.207Z,99255.95
2019-02-11T05:05:30.395Z,99259.83
2019-02-11T05:06:01.591Z,99259.00
2019-02-11T05:06:32.825Z,99263.68
2019-02-11T05:07:04.093Z,99264.98
2019-02-11T05:07:35.316Z,99263.69
2019-02-11T05:08:06.531Z,99265.84
2019-02-11T05:08:38.595Z,99271.84
2019-02-11T05:09:09.834Z,99274.42
2019-02-11T05:09:41.074Z,99270.55
2019-02-11T05:10:12.291Z,99274.02
2019-02-11T05:10:43.554Z,99274.03
2019-02-11T05:11:14.770Z,99273.17
2019-02-11T05:11:46.042Z,99271.48
2019-02-11T05:12:17.292Z,99274.46
2019-02-11T05:12:48.536Z,99273.61
2019-02-11T05:13:19.788Z,99280.03
2019-02-11T05:13:50.968Z,99278.34
2019-02-11T05:14:22.191Z,99278.33
2019-02-11T05:14:53.406Z,99277.91
2019-02-11T05:15:24.616Z,99281.34
2019-02-11T05:15:55.880Z,99280.49
2019-02-11T05:16:29.372Z,99280.93
2019-02-11T05:17:00.591Z,99286.06
2019-02-11T05:17:31.810Z,99290.36
2019-02-11T05:18:03.094Z,99293.80
2019-02-11T05:18:34.328Z,99296.37
2019-02-11T05:19:05.581Z,99302.35
2019-02-11T05:19:36.780Z,99298.08
2019-02-11T05:20:07.981Z,99295.94
2019-02-11T05:20:39.227Z,99299.37
2019-02-11T05:21:10.443Z,99298.92
2019-02-11T05:21:42.738Z,99303.64
2019-02-11T05:22:13.962Z,99302.34
2019-02-11T05:22:45.210Z,99297.63
2019-02-11T05:23:16.390Z,99299.73
2019-02-11T05:23:48.542Z,99310.89
2019-02-11T05:24:19.788Z,99312.61
2019-02-11T05:24:50.987Z,99319.03
2019-02-11T05:25:29.273Z,99320.32
2019-02-11T05:26:00.510Z,99321.60
2019-02-11T05:26:31.808Z,99322.42
2019-02-11T05:27:03.044Z,99330.55
2019-02-11T05:27:34.258Z,99332.27
2019-02-11T05:28:06.407Z,99331.39
2019-02-11T05:28:39.633Z,99338.27
2019-02-11T05:29:10.858Z,99338.27
2019-02-11T05:29:42.070Z,99342.11
2019-02-11T05:30:13.294Z,99338.70
2019-02-11T05:30:44.521Z,99338.27
2019-02-11T05:31:18.123Z,99341.70
2019-02-11T05:31:49.346Z,99337.39
2019-02-11T05:32:20.562Z,99333.55
2019-02-11T05:32:54.856Z,99335.27
2019-02-11T05:33:27.132Z,99337.39
2019-02-11T05:33:58.371Z,99333.10
2019-02-11T05:34:29.583Z,99331.38
2019-02-11T05:35:00.811Z,99326.69
2019-02-11T05:35:32.034Z,99323.67
2019-02-11T05:36:03.235Z,99318.97
2019-02-11T05:36:34.452Z,99317.68
2019-02-11T05:37:05.668Z,99318.14
2019-02-11T05:37:36.888Z,99317.72
2019-02-11T05:38:08.141Z,99308.31
2019-02-11T05:38:39.345Z,99311.72
2019-02-11T05:39:10.554Z,99305.32
2019-02-11T05:39:41.780Z,99315.59
2019-02-11T05:40:13.003Z,99301.05
2019-02-11T05:40:44.220Z,99308.34
2019-02-11T05:41:15.434Z,99307.05
2019-02-11T05:41:46.651Z,99299.77
2019-02-11T05:42:17.878Z,99293.76
2019-02-11T05:42:49.090Z,99298.91
2019-02-11T05:43:20.329Z,99292.92
2019-02-11T05:43:51.565Z,99297.20
2019-02-11T05:44:22.837Z,99290.36
2019-02-11T05:44:54.407Z,99292.92
2019-02-11T05:45:25.749Z,99295.50
2019-02-11T05:45:56.953Z,99292.07
2019-02-11T05:46:28.159Z,99298.94
2019-02-11T05:46:59.367Z,99296.80
2019-02-11T05:47:30.583Z,99298.09
2019-02-11T05:48:01.797Z,99298.08
2019-02-11T05:48:33.012Z,99298.93
2019-02-11T05:49:04.226Z,99302.38
2019-02-11T05:49:35.510Z,99291.63
2019-02-11T05:50:06.725Z,99295.07
2019-02-11T05:50:37.944Z,99295.51
2019-02-11T05:51:09.181Z,99300.64
2019-02-11T05:51:40.407Z,99299.34
2019-02-11T05:52:11.618Z,99301.95
2019-02-11T05:52:42.846Z,99300.66
2019-02-11T05:53:14.059Z,99306.66
2019-02-11T05:53:45.263Z,99304.94
2019-02-11T05:54:16.493Z,99307.06
2019-02-11T05:54:47.741Z,99302.76
2019-02-11T05:55:19.005Z,99303.20
2019-02-11T05:55:50.208Z,99303.61
2019-02-11T05:56:21.436Z,99311.33
2019-02-11T05:56:52.640Z,99303.12
2019-02-11T05:57:24.882Z,99302.70
2019-02-11T05:57:56.094Z,99297.13
2019-02-11T05:58:27.336Z,99297.53
2019-02-11T05:58:58.563Z,99295.41
2019-02-11T05:59:29.765Z,99290.67
2019-02-11T06:00:01.028Z,99288.09
2019-02-11T06:00:32.255Z,99290.67
2019-02-11T06:01:03.471Z,99292.85
2019-02-11T06:01:34.759Z,99290.28
2019-02-11T06:02:05.943Z,99282.55
2019-02-11T06:02:37.170Z,99292.43
2019-02-11T06:03:09.595Z,99290.71
2019-02-11T06:03:40.956Z,99288.57
2019-02-11T06:04:12.165Z,99281.28
2019-02-11T06:04:43.371Z,99286.42
2019-02-11T06:05:14.596Z,99280.41
2019-02-11T06:05:45.806Z,99282.55
2019-02-11T06:06:17.069Z,99281.28
2019-02-11T06:06:48.278Z,99284.70
2019-02-11T06:07:19.518Z,99282.58
2019-02-11T06:07:50.746Z,99273.12
2019-02-11T06:08:21.965Z,99273.98
2019-02-11T06:08:53.183Z,99273.96
2019-02-11T06:09:24.396Z,99270.52